Time;durP1;ratioP1;P1;durP2;ratioP2;P2;SDS_P1;SDS_P2;PMS_P1;PMS_P2;Temp;Humidity;BMP_temperature;BMP_pressure;BME280_temperature;BME280_humidity;BME280_pressure;Samples;Min_cycle;Max_cycle;Signal;HPM_P1;HPM_P2
2021/12/03 00:02:03;;;;;;;;;19.75;16.00;;;;;2.84;86.55;100634.03;4993519;28;45530;-68
2021/12/03 00:04:29;;;;;;;;;14.75;13.75;;;;;2.89;87.31;100646.97;5036223;27;45443;-68
2021/12/03 00:06:55;;;;;;;;;20.75;16.75;;;;;2.90;87.28;100646.09;5082655;27;45459;-64
2021/12/03 00:09:21;;;;;;;;;16.25;16.25;;;;;2.88;87.40;100637.47;5100854;27;46941;-71
2021/12/03 00:11:47;;;;;;;;;25.75;21.00;;;;;2.80;87.53;100616.75;5099939;27;45403;-64
2021/12/03 00:14:16;;;;;;;;;19.75;15.50;;;;;2.87;86.99;100633.13;5150954;27;45327;-68
2021/12/03 00:16:41;;;;;;;;;22.25;20.00;;;;;2.86;87.77;100632.28;5118575;27;45370;-68
2021/12/03 00:19:06;;;;;;;;;21.25;18.25;;;;;2.85;86.96;100640.09;5075944;27;45423;-70
2021/12/03 00:21:32;;;;;;;;;22.25;20.25;;;;;2.87;86.94;100644.41;5037198;27;45409;-68
2021/12/03 00:23:57;;;;;;;;;17.75;17.00;;;;;2.88;86.92;100646.13;5108808;27;45427;-66
2021/12/03 00:26:23;;;;;;;;;17.75;17.75;;;;;2.89;87.52;100640.06;5120070;27;45354;-70
2021/12/03 00:28:49;;;;;;;;;23.25;18.75;;;;;2.90;87.48;100646.09;5117520;27;45951;-70
2021/12/03 00:31:15;;;;;;;;;20.25;16.50;;;;;2.92;87.59;100639.16;5066112;27;45555;-70
2021/12/03 00:33:42;;;;;;;;;22.25;18.25;;;;;2.65;86.99;100599.53;5037448;27;45407;-70
2021/12/03 00:36:09;;;;;;;;;21.00;18.75;;;;;2.90;86.84;100641.78;5031991;28;45738;-69
2021/12/03 00:38:40;;;;;;;;;18.25;17.00;;;;;2.94;87.43;100640.00;5031497;28;46202;-69
2021/12/03 00:41:07;;;;;;;;;20.75;18.00;;;;;2.76;87.12;100604.66;5065656;28;46137;-71
2021/12/03 00:43:33;;;;;;;;;14.00;14.00;;;;;2.88;86.79;100619.28;5033146;28;45364;-70
2021/12/03 00:46:05;;;;;;;;;20.00;15.50;;;;;2.96;87.58;100648.66;5032248;28;45526;-69
2021/12/03 00:48:31;;;;;;;;;14.25;13.25;;;;;2.96;86.97;100646.06;5032055;28;46234;-69
2021/12/03 00:50:57;;;;;;;;;18.50;13.75;;;;;2.98;86.95;100646.06;5032960;28;45372;-70
2021/12/03 00:53:22;;;;;;;;;17.00;13.50;;;;;2.99;86.58;100648.63;5034216;28;45525;-70
2021/12/03 00:55:48;;;;;;;;;20.50;15.00;;;;;3.00;86.71;100639.97;5033267;28;45595;-70
2021/12/03 00:58:14;;;;;;;;;12.50;12.50;;;;;3.02;87.05;100653.81;5032830;28;46069;-72
2021/12/03 01:00:39;;;;;;;;;14.00;8.25;;;;;3.04;86.54;100654.66;5035909;28;45546;-71
2021/12/03 01:03:04;;;;;;;;;17.00;15.75;;;;;3.06;86.55;100660.72;5036137;28;45344;-70
2021/12/03 01:05:31;;;;;;;;;16.75;11.25;;;;;2.92;86.52;100633.97;5036395;28;45412;-68
2021/12/03 01:07:57;;;;;;;;;17.00;15.25;;;;;3.11;86.49;100652.88;5036255;28;46106;-67
2021/12/03 01:10:23;;;;;;;;;15.00;13.50;;;;;3.15;87.07;100664.09;5035991;28;45362;-69
2021/12/03 01:12:48;;;;;;;;;19.00;15.75;;;;;3.18;87.21;100659.75;5035595;28;45328;-70
2021/12/03 01:15:18;;;;;;;;;14.00;12.50;;;;;3.19;86.36;100661.47;5035877;28;45277;-69
2021/12/03 01:17:44;;;;;;;;;16.50;15.00;;;;;3.23;86.99;100670.13;5036565;28;46154;-72
2021/12/03 01:20:13;;;;;;;;;21.25;17.25;;;;;3.25;87.02;100676.19;5041250;28;45455;-70
2021/12/03 01:22:40;;;;;;;;;20.25;17.00;;;;;3.28;86.33;100665.75;5042786;28;45316;-69
2021/12/03 01:25:07;;;;;;;;;20.00;15.00;;;;;3.19;86.56;100658.88;5036232;28;45407;-71
2021/12/03 01:27:33;;;;;;;;;18.75;14.50;;;;;3.34;86.19;100670.91;5035703;27;47569;-68
2021/12/03 01:29:58;;;;;;;;;12.00;12.00;;;;;3.30;87.01;100664.00;5037194;28;45240;-69
2021/12/03 01:32:24;;;;;;;;;17.50;15.00;;;;;3.39;86.47;100678.66;5037835;28;45180;-70
2021/12/03 01:34:49;;;;;;;;;11.75;11.75;;;;;3.41;86.62;100673.44;5039709;28;45463;-68
2021/12/03 01:37:14;;;;;;;;;16.25;12.50;;;;;3.45;85.83;100672.53;5050415;27;45466;-69
2021/12/03 01:39:40;;;;;;;;;11.75;11.25;;;;;3.49;85.88;100674.22;5092714;27;45477;-71
2021/12/03 01:42:05;;;;;;;;;16.50;15.25;;;;;3.51;86.32;100678.53;5120950;27;45466;-68
2021/12/03 01:44:31;;;;;;;;;19.00;15.25;;;;;3.55;85.78;100675.91;5090275;27;45297;-70
2021/12/03 01:46:56;;;;;;;;;13.75;13.75;;;;;3.59;86.06;100672.38;5121193;27;46262;-68
2021/12/03 01:49:23;;;;;;;;;15.50;12.50;;;;;3.62;86.06;100685.38;5121666;27;46005;-69
2021/12/03 01:51:48;;;;;;;;;17.00;13.00;;;;;3.63;85.47;100679.28;5120303;27;45463;-70
2021/12/03 01:54:14;;;;;;;;;15.25;13.25;;;;;3.64;85.80;100687.09;5070682;27;45487;-65
2021/12/03 01:56:39;;;;;;;;;17.25;15.50;;;;;3.67;85.49;100696.59;5094736;27;45380;-68
2021/12/03 01:59:07;;;;;;;;;19.25;15.25;;;;;3.66;86.26;100687.06;5048313;27;45415;-68
2021/12/03 02:01:33;;;;;;;;;17.25;14.50;;;;;3.69;85.88;100681.81;5094049;27;45426;-68
2021/12/03 02:04:01;;;;;;;;;17.00;15.50;;;;;3.72;85.97;100693.97;5037021;27;45618;-70
2021/12/03 02:06:28;;;;;;;;;19.25;16.50;;;;;3.70;85.92;100687.91;5034134;27;45933;-71
2021/12/03 02:08:54;;;;;;;;;17.00;14.50;;;;;3.75;86.27;100688.72;5034643;28;45417;-68
2021/12/03 02:11:20;;;;;;;;;24.75;20.00;;;;;3.75;86.06;100684.41;5033072;28;45389;-68
2021/12/03 02:13:46;;;;;;;;;19.00;16.50;;;;;3.77;85.32;100686.97;5035818;28;45392;-70
2021/12/03 02:16:16;;;;;;;;;21.50;16.25;;;;;3.78;86.19;100686.09;5036928;28;45414;-71
2021/12/03 02:18:42;;;;;;;;;18.25;13.25;;;;;3.82;85.80;100684.31;5034564;28;45435;-69
2021/12/03 02:21:09;;;;;;;;;19.00;13.75;;;;;3.83;86.00;100673.88;5034313;28;45435;-66
2021/12/03 02:23:36;;;;;;;;;5.25;5.00;;;;;3.85;85.43;100677.34;5042793;28;45335;-68
2021/12/03 02:26:03;;;;;;;;;18.25;14.75;;;;;3.84;85.67;100670.41;5036500;27;46000;-67
2021/12/03 02:28:31;;;;;;;;;12.75;12.00;;;;;3.86;84.94;100678.22;5036918;28;45430;-67
2021/12/03 02:30:57;;;;;;;;;14.25;12.00;;;;;3.91;84.86;100689.44;5033386;28;45424;-69
2021/12/03 02:33:22;;;;;;;;;13.00;10.75;;;;;3.91;84.82;100679.88;5033943;28;45275;-69
2021/12/03 02:35:49;;;;;;;;;12.75;10.25;;;;;3.95;85.08;100673.75;5034053;28;45600;-66
2021/12/03 02:38:19;;;;;;;;;10.75;9.25;;;;;3.98;84.80;100679.81;5034239;28;45249;-70
2021/12/03 02:40:45;;;;;;;;;17.25;11.00;;;;;4.03;84.37;100680.59;5034907;28;45309;-69
2021/12/03 02:43:11;;;;;;;;;14.25;8.75;;;;;4.04;84.78;100682.34;5034627;28;45667;-68
2021/12/03 02:45:36;;;;;;;;;13.50;11.25;;;;;4.08;84.13;100684.03;5032603;27;46127;-65
2021/12/03 02:48:04;;;;;;;;;14.00;9.00;;;;;4.05;84.57;100668.44;4995146;28;45444;-67
2021/12/03 02:50:30;;;;;;;;;18.50;12.50;;;;;4.15;84.36;100675.25;4995926;28;45495;-64
2021/12/03 02:52:55;;;;;;;;;12.75;12.00;;;;;4.16;84.06;100671.78;4993123;28;45936;-64
2021/12/03 02:55:22;;;;;;;;;13.75;10.25;;;;;4.19;84.14;100663.91;4994183;28;45708;-70
2021/12/03 02:57:49;;;;;;;;;16.50;10.00;;;;;4.00;83.95;100629.47;4992657;28;45501;-70
2021/12/03 03:00:18;;;;;;;;;11.00;10.00;;;;;4.26;83.73;100656.91;4994735;28;45444;-70
2021/12/03 03:02:45;;;;;;;;;9.50;9.50;;;;;4.28;83.19;100646.50;4997561;28;45435;-67
2021/12/03 03:05:12;;;;;;;;;11.25;8.75;;;;;4.25;83.08;100634.34;4999759;28;45597;-69
2021/12/03 03:07:38;;;;;;;;;13.50;10.00;;;;;4.34;83.83;100642.03;4993578;28;45398;-68
2021/12/03 03:10:09;;;;;;;;;13.50;13.00;;;;;4.36;83.29;100639.44;4994485;28;45391;-68
2021/12/03 03:12:35;;;;;;;;;14.25;11.25;;;;;4.35;82.97;100633.34;4992849;28;45563;-67
2021/12/03 03:15:01;;;;;;;;;18.75;14.25;;;;;4.32;82.77;100625.56;4995685;28;45549;-70
2021/12/03 03:17:30;;;;;;;;;15.50;12.00;;;;;4.41;83.13;100628.94;4997177;28;45321;-69
2021/12/03 03:19:58;;;;;;;;;14.25;12.25;;;;;4.41;82.89;100627.22;4997915;28;45377;-70
2021/12/03 03:22:24;;;;;;;;;17.00;13.00;;;;;4.41;82.35;100629.81;4993446;28;45447;-70
2021/12/03 03:24:51;;;;;;;;;12.75;6.00;;;;;4.37;82.70;100623.78;4993119;28;46623;-70
2021/12/03 03:27:18;;;;;;;;;12.50;11.00;;;;;4.39;82.10;100626.38;4994177;28;45508;-71
2021/12/03 03:29:44;;;;;;;;;17.25;14.50;;;;;4.37;83.00;100633.34;5009394;28;45352;-69
2021/12/03 03:32:10;;;;;;;;;14.75;11.75;;;;;4.35;82.64;100630.75;4994309;28;45446;-71
2021/12/03 03:34:37;;;;;;;;;10.50;10.50;;;;;4.36;82.90;100637.69;4994848;28;46323;-66
2021/12/03 03:37:02;;;;;;;;;16.50;12.75;;;;;4.38;82.75;100632.47;4994679;28;45316;-69
2021/12/03 03:39:28;;;;;;;;;12.25;11.75;;;;;4.33;82.20;100629.91;4994541;28;45465;-68
2021/12/03 03:41:53;;;;;;;;;13.00;11.00;;;;;4.36;82.88;100631.63;4995192;28;45350;-68
2021/12/03 03:44:19;;;;;;;;;14.50;13.75;;;;;4.37;82.29;100631.59;4999042;28;46282;-67
2021/12/03 03:46:46;;;;;;;;;10.75;10.75;;;;;4.37;82.10;100625.53;5002618;28;45157;-68
2021/12/03 03:49:11;;;;;;;;;15.00;13.25;;;;;4.32;82.82;100617.75;4995092;28;45408;-71
2021/12/03 03:51:37;;;;;;;;;10.00;10.00;;;;;4.35;82.18;100635.09;4993990;28;45457;-67
2021/12/03 03:54:12;;;;;;;;;14.75;13.50;;;;;4.28;82.31;100628.25;5110475;27;45434;-67
2021/12/03 03:56:37;;;;;;;;;15.00;11.25;;;;;4.25;81.85;100618.72;5093331;27;45849;-65
2021/12/03 03:59:03;;;;;;;;;11.50;11.00;;;;;4.33;81.93;100634.25;5093615;27;45371;-66
2021/12/03 04:01:28;;;;;;;;;13.25;10.00;;;;;4.30;82.13;100627.34;5093998;27;45358;-69
2021/12/03 04:03:54;;;;;;;;;18.00;12.00;;;;;4.29;82.11;100615.19;5093345;27;46468;-66
2021/12/03 04:06:20;;;;;;;;;14.25;12.25;;;;;4.26;81.69;100611.78;5092823;27;45262;-70
2021/12/03 04:08:47;;;;;;;;;13.00;10.00;;;;;4.27;82.24;100626.53;5093347;27;45325;-70
2021/12/03 04:11:15;;;;;;;;;16.50;12.75;;;;;4.21;82.50;100617.91;5098876;27;45182;-69
2021/12/03 04:13:40;;;;;;;;;14.75;13.00;;;;;4.22;82.42;100622.22;5098865;27;45323;-69
2021/12/03 04:16:06;;;;;;;;;14.50;12.75;;;;;4.14;82.48;100608.44;5094558;27;45417;-70
2021/12/03 04:18:32;;;;;;;;;10.75;10.75;;;;;3.91;81.92;100567.97;5092936;27;45514;-71
2021/12/03 04:20:58;;;;;;;;;19.25;14.00;;;;;4.14;82.26;100605.00;5092803;27;45426;-70
2021/12/03 04:23:24;;;;;;;;;13.25;10.50;;;;;4.11;82.36;100600.69;5093264;27;45360;-68
2021/12/03 04:25:50;;;;;;;;;16.50;12.00;;;;;4.09;82.46;100616.34;5111338;27;45449;-71
2021/12/03 04:28:17;;;;;;;;;12.00;11.00;;;;;4.07;82.26;100614.63;5092797;27;45228;-71
2021/12/03 04:30:43;;;;;;;;;14.75;10.25;;;;;4.11;82.27;100625.88;5092835;27;45447;-69
2021/12/03 04:33:09;;;;;;;;;12.00;10.50;;;;;4.10;83.04;100624.97;5093639;27;45319;-67
2021/12/03 04:35:35;;;;;;;;;13.00;12.75;;;;;4.14;83.05;100626.66;5093804;27;45461;-70
2021/12/03 04:38:01;;;;;;;;;12.75;11.00;;;;;4.18;82.53;100615.34;5093570;27;45361;-69
2021/12/03 04:40:28;;;;;;;;;13.25;10.25;;;;;4.20;82.21;100610.13;5087033;27;45645;-66
2021/12/03 04:42:53;;;;;;;;;13.50;9.25;;;;;4.22;82.28;100618.78;5091370;27;46209;-67
2021/12/03 04:45:21;;;;;;;;;13.75;9.00;;;;;4.15;82.37;100612.78;5091015;27;45240;-67
2021/12/03 04:47:49;;;;;;;;;14.25;12.00;;;;;4.19;82.44;100608.41;5093694;27;45458;-68
2021/12/03 04:50:16;;;;;;;;;11.00;6.25;;;;;4.12;81.90;100596.34;5092695;27;45652;-71
2021/12/03 04:52:41;;;;;;;;;11.50;10.50;;;;;4.11;81.95;100599.84;5091051;27;45472;-68
2021/12/03 04:55:08;;;;;;;;;12.75;12.00;;;;;4.16;82.82;100608.44;5092131;27;45260;-68
2021/12/03 04:57:34;;;;;;;;;12.75;9.00;;;;;4.15;81.62;100597.16;5095460;27;45456;-69
2021/12/03 05:00:00;;;;;;;;;10.25;9.50;;;;;4.21;81.58;100617.91;5095764;27;45729;-67
2021/12/03 05:02:26;;;;;;;;;13.25;10.50;;;;;4.20;81.88;100610.97;5111095;27;46827;-67
2021/12/03 05:04:55;;;;;;;;;10.00;9.00;;;;;4.19;81.45;100604.03;5088148;27;45325;-69
2021/12/03 05:10:05;;;;;;;;;11.25;11.00;;;;;4.19;81.69;100595.38;5078314;27;45464;-71
2021/12/03 05:12:31;;;;;;;;;9.50;9.50;;;;;4.19;81.91;100587.56;5078116;28;46390;-67
2021/12/03 05:14:56;;;;;;;;;9.75;9.50;;;;;4.12;81.93;100572.91;5077183;27;45565;-70
2021/12/03 05:17:22;;;;;;;;;12.25;8.00;;;;;4.16;82.08;100580.66;5082281;27;45477;-68
2021/12/03 05:19:48;;;;;;;;;7.75;7.75;;;;;4.15;81.12;100578.06;5084516;27;45521;-71
2021/12/03 05:22:14;;;;;;;;;10.50;10.25;;;;;4.15;81.27;100571.13;5077491;27;46496;-69
2021/12/03 05:24:40;;;;;;;;;6.75;6.00;;;;;4.07;81.18;100554.75;5077511;27;45823;-68
2021/12/03 05:27:06;;;;;;;;;12.00;11.00;;;;;4.06;81.08;100558.22;5093472;27;45405;-69
2021/12/03 05:29:32;;;;;;;;;7.75;7.75;;;;;4.10;81.50;100565.09;5078562;28;45221;-70
2021/12/03 05:31:58;;;;;;;;;7.75;7.25;;;;;4.12;80.87;100581.56;5077600;27;45383;-71
2021/12/03 05:34:24;;;;;;;;;11.25;9.75;;;;;4.09;81.21;100563.38;5079065;27;45500;-72
2021/12/03 05:36:49;;;;;;;;;13.75;9.00;;;;;4.13;81.03;100565.06;5079313;27;45440;-71
2021/12/03 05:39:15;;;;;;;;;8.00;6.00;;;;;4.16;81.44;100557.22;5078066;27;45472;-71
2021/12/03 05:41:41;;;;;;;;;13.50;9.50;;;;;4.20;81.21;100564.09;5078425;27;46204;-70
2021/12/03 05:44:06;;;;;;;;;11.50;9.25;;;;;4.22;82.30;100562.34;5078540;27;45437;-70
2021/12/03 05:46:32;;;;;;;;;11.25;8.75;;;;;4.33;80.94;100559.59;5078751;27;45403;-71
2021/12/03 05:48:57;;;;;;;;;8.25;8.25;;;;;4.37;81.23;100560.41;5094410;27;45378;-69
2021/12/03 05:51:25;;;;;;;;;12.75;10.75;;;;;4.39;81.07;100564.72;5077812;27;45487;-68
2021/12/03 05:53:51;;;;;;;;;7.00;5.75;;;;;4.39;80.12;100554.28;5077607;27;45209;-68
2021/12/03 05:56:16;;;;;;;;;12.25;9.50;;;;;4.42;80.29;100552.53;5078261;27;46029;-70
2021/12/03 05:58:42;;;;;;;;;10.75;9.25;;;;;4.39;80.57;100543.03;5079253;27;45239;-67
2021/12/03 06:01:07;;;;;;;;;9.25;9.25;;;;;4.47;79.78;100545.50;5080428;27;45914;-71
2021/12/03 06:03:33;;;;;;;;;11.25;10.00;;;;;4.48;79.94;100526.38;5083193;27;45323;-70
2021/12/03 06:05:58;;;;;;;;;10.25;10.25;;;;;4.48;79.67;100514.22;5078284;27;45445;-70
2021/12/03 06:08:23;;;;;;;;;11.50;11.50;;;;;4.48;79.57;100522.03;5083724;27;45313;-67
2021/12/03 06:10:49;;;;;;;;;11.00;11.00;;;;;4.44;79.09;100509.94;5078616;27;46357;-66
2021/12/03 06:13:14;;;;;;;;;9.00;8.25;;;;;4.44;79.62;100519.50;5077623;27;45335;-67
2021/12/03 06:15:39;;;;;;;;;11.25;7.00;;;;;4.42;79.57;100527.34;5076636;27;45511;-71
2021/12/03 06:18:05;;;;;;;;;9.00;8.50;;;;;4.39;79.52;100530.00;5077996;27;45554;-67
2021/12/03 06:20:30;;;;;;;;;10.00;8.75;;;;;4.39;79.57;100537.81;5077871;27;45481;-68
2021/12/03 06:22:56;;;;;;;;;7.50;5.50;;;;;4.40;79.86;100536.94;5082178;27;45425;-71
2021/12/03 06:25:22;;;;;;;;;13.50;10.75;;;;;4.42;79.88;100535.16;5076477;28;45441;-70
2021/12/03 06:27:49;;;;;;;;;13.00;10.00;;;;;4.43;80.21;100544.69;5078197;27;45318;-72
2021/12/03 06:30:18;;;;;;;;;7.50;7.00;;;;;4.39;79.54;100533.44;5077081;27;46261;-69
2021/12/03 06:32:44;;;;;;;;;12.75;8.75;;;;;4.42;nan;100536.88;5078375;27;45344;-69
2021/12/03 06:35:11;;;;;;;;;12.00;10.25;;;;;4.39;79.54;100546.47;5080493;28;45354;-71
2021/12/03 06:37:37;;;;;;;;;10.25;9.00;;;;;4.28;79.17;100534.53;5078494;27;45333;-68
2021/12/03 06:40:06;;;;;;;;;9.25;9.00;;;;;4.35;79.09;100543.97;5083145;27;45377;-71
2021/12/03 06:42:31;;;;;;;;;9.00;8.25;;;;;4.29;79.67;100550.09;5082022;27;45224;-70
2021/12/03 06:44:57;;;;;;;;;5.25;4.00;;;;;4.32;78.94;100544.00;5094582;27;45241;-69
2021/12/03 06:47:22;;;;;;;;;7.00;5.00;;;;;4.28;79.62;100548.38;5079072;27;45247;-68
2021/12/03 06:49:48;;;;;;;;;14.75;8.75;;;;;4.29;79.12;100555.31;5077432;27;46021;-68
2021/12/03 06:52:15;;;;;;;;;14.75;7.75;;;;;4.30;79.31;100544.00;5076689;27;45366;-67
2021/12/03 06:54:41;;;;;;;;;6.50;6.25;;;;;4.31;79.52;100542.28;5077034;27;45439;-69
2021/12/03 06:57:08;;;;;;;;;10.75;8.50;;;;;4.32;80.00;100539.63;5076875;28;45428;-66
2021/12/03 06:59:34;;;;;;;;;10.75;9.00;;;;;4.36;80.18;100536.09;5076507;27;47485;-71
2021/12/03 07:02:00;;;;;;;;;10.25;9.75;;;;;4.41;79.84;100540.38;5076453;27;45213;-70
2021/12/03 07:04:26;;;;;;;;;11.25;7.75;;;;;4.42;79.15;100531.69;5076332;27;45310;-69
2021/12/03 07:06:53;;;;;;;;;9.00;9.00;;;;;4.44;79.84;100533.41;5077061;27;45219;-71
2021/12/03 07:09:19;;;;;;;;;9.75;7.00;;;;;4.38;79.28;100523.06;5077256;27;45495;-68
2021/12/03 07:11:45;;;;;;;;;8.00;7.50;;;;;4.46;79.61;100535.97;5076781;27;45423;-69
2021/12/03 07:14:11;;;;;;;;;9.00;6.75;;;;;4.46;79.45;100534.22;5076978;27;45468;-69
2021/12/03 07:16:37;;;;;;;;;12.00;7.75;;;;;4.47;79.10;100537.69;5075650;28;45281;-70
2021/12/03 07:19:04;;;;;;;;;8.25;6.25;;;;;4.46;79.57;100518.59;5076391;27;45995;-70
2021/12/03 07:21:29;;;;;;;;;7.00;6.25;;;;;4.48;79.25;100527.25;5076291;28;45456;-71
2021/12/03 07:23:55;;;;;;;;;10.25;9.00;;;;;4.48;79.41;100509.03;5076401;27;45318;-69
2021/12/03 07:26:23;;;;;;;;;7.75;7.75;;;;;4.52;79.57;100510.69;5077869;27;45211;-68
2021/12/03 07:28:48;;;;;;;;;10.75;9.25;;;;;4.52;79.12;100510.69;5076131;27;45625;-65
2021/12/03 07:31:14;;;;;;;;;14.75;7.25;;;;;4.56;79.39;100521.91;5077994;27;45251;-67
2021/12/03 07:33:40;;;;;;;;;10.00;7.00;;;;;4.57;79.11;100514.97;5077377;27;45263;-70
2021/12/03 07:36:06;;;;;;;;;10.50;10.00;;;;;4.55;78.85;100519.34;5076201;27;45387;-70
2021/12/03 07:38:33;;;;;;;;;14.25;13.25;;;;;4.58;79.02;100516.69;5074539;27;47211;-69
2021/12/03 07:40:58;;;;;;;;;14.50;13.75;;;;;4.58;79.00;100522.75;5094900;27;46749;-71
2021/12/03 07:43:24;;;;;;;;;11.75;10.00;;;;;4.60;78.83;100525.34;5089874;27;45401;-69
2021/12/03 07:45:50;;;;;;;;;14.00;12.50;;;;;4.62;78.49;100520.97;5076484;27;45585;-70
2021/12/03 07:48:16;;;;;;;;;14.50;11.25;;;;;4.59;78.74;100507.97;5086720;27;45515;-68
2021/12/03 07:50:42;;;;;;;;;17.00;12.75;;;;;4.70;78.65;100526.03;5087900;27;45430;-71
2021/12/03 07:53:15;;;;;;;;;8.75;8.75;;;;;4.59;78.38;100514.03;5078173;27;45255;-75
2021/12/03 07:55:40;;;;;;;;;10.75;10.75;;;;;4.75;79.11;100529.41;5076666;27;45192;-73
2021/12/03 07:58:06;;;;;;;;;7.50;6.00;;;;;4.76;78.06;100524.19;5074735;27;45500;-75
2021/12/03 08:00:32;;;;;;;;;10.25;7.50;;;;;4.71;78.29;100509.50;5076095;27;45504;-71
2021/12/03 08:02:58;;;;;;;;;11.75;6.25;;;;;4.79;77.86;100520.69;5076917;27;45397;-74
2021/12/03 08:05:23;;;;;;;;;7.75;7.75;;;;;4.78;78.21;100525.03;5077315;27;45452;-66
2021/12/03 08:07:50;;;;;;;;;12.75;9.00;;;;;4.80;78.16;100518.03;5076279;27;45601;-74
2021/12/03 08:10:16;;;;;;;;;9.00;5.25;;;;;4.83;78.12;100514.53;5076583;27;45393;-76
2021/12/03 08:12:43;;;;;;;;;11.00;7.25;;;;;4.83;78.28;100510.16;5076970;27;45378;-71
2021/12/03 08:15:09;;;;;;;;;5.75;5.00;;;;;4.88;77.79;100519.66;5076164;27;45447;-77
2021/12/03 08:17:36;;;;;;;;;7.00;7.00;;;;;4.92;77.95;100516.09;5076308;27;45236;-75
2021/12/03 08:20:03;;;;;;;;;10.75;7.00;;;;;4.97;77.28;100506.44;5076462;27;45410;-75
2021/12/03 08:22:29;;;;;;;;;14.75;13.00;;;;;5.01;77.67;100515.09;5077333;27;45371;-73
2021/12/03 08:24:54;;;;;;;;;15.50;14.00;;;;;5.03;77.64;100505.50;5075327;27;45450;-76
2021/12/03 08:27:20;;;;;;;;;12.25;6.00;;;;;5.10;77.20;100504.50;5078606;27;45489;-70
2021/12/03 08:29:46;;;;;;;;;5.75;5.00;;;;;5.15;77.30;100509.59;5079643;27;45915;-76
2021/12/03 08:32:11;;;;;;;;;5.50;4.00;;;;;5.13;76.98;100504.44;5080026;27;45351;-67
2021/12/03 08:34:37;;;;;;;;;6.25;1.00;;;;;5.26;76.91;100515.47;5079810;27;45428;-69
2021/12/03 08:37:03;;;;;;;;;7.00;7.00;;;;;5.31;76.61;100503.22;5077040;28;45664;-70
2021/12/03 08:39:32;;;;;;;;;6.00;5.50;;;;;5.36;76.27;100501.38;5077665;27;45200;-67
2021/12/03 08:41:58;;;;;;;;;13.50;7.00;;;;;5.43;76.01;100506.47;5079837;27;45343;-65
2021/12/03 08:44:23;;;;;;;;;7.50;6.00;;;;;5.46;74.93;100502.03;5080798;27;45483;-66
2021/12/03 08:47:03;;;;;;;;;8.00;6.00;;;;;5.48;75.36;100499.41;5087449;27;45499;-68
2021/12/03 08:49:31;;;;;;;;;8.00;6.00;;;;;5.51;74.06;100504.56;5079336;27;45357;-66
2021/12/03 08:57:10;;;;;;;;;4.25;4.00;;;;;5.57;74.03;100512.28;5078344;27;45420;-67
2021/12/03 08:59:35;;;;;;;;;6.25;6.25;;;;;5.64;74.16;100516.47;5082089;27;45306;-62
2021/12/03 09:02:00;;;;;;;;;8.50;7.00;;;;;5.66;74.11;100512.09;5081040;27;45476;-68
2021/12/03 09:04:26;;;;;;;;;14.25;9.75;;;;;5.67;73.71;100500.75;5078257;28;45380;-63
2021/12/03 09:06:51;;;;;;;;;16.00;11.75;;;;;5.64;74.74;100495.59;5078962;28;46234;-62
2021/12/03 09:09:17;;;;;;;;;13.00;8.00;;;;;5.68;73.71;100515.53;5079167;27;45374;-67
2021/12/03 09:11:42;;;;;;;;;7.75;7.75;;;;;5.68;73.93;100510.31;5080211;28;45280;-66
2021/12/03 09:14:16;;;;;;;;;10.75;10.25;;;;;5.65;74.01;100494.72;5085878;27;45310;-67
2021/12/03 09:16:44;;;;;;;;;10.50;10.25;;;;;5.76;74.27;100502.28;5083261;27;46411;-69
2021/12/03 09:19:17;;;;;;;;;9.00;6.00;;;;;5.75;73.71;100504.94;5082274;27;45184;-67
2021/12/03 09:21:43;;;;;;;;;9.00;7.00;;;;;5.70;73.33;100495.47;5081405;27;45404;-69
2021/12/03 09:24:11;;;;;;;;;11.75;8.75;;;;;5.73;73.87;100491.06;5079057;27;45265;-63
2021/12/03 09:26:40;;;;;;;;;9.50;7.25;;;;;5.75;74.04;100492.75;5079018;27;46156;-64
2021/12/03 09:29:08;;;;;;;;;12.00;8.00;;;;;5.76;74.51;100491.00;5080802;27;45296;-65
2021/12/03 09:31:36;;;;;;;;;8.00;6.75;;;;;5.76;74.68;100480.56;5080097;27;45483;-64
2021/12/03 09:34:09;;;;;;;;;8.00;7.25;;;;;5.75;74.66;100479.69;5083189;27;45512;-67
2021/12/03 09:36:36;;;;;;;;;6.50;5.25;;;;;5.68;74.86;100460.72;5079587;27;46943;-63
2021/12/03 09:39:03;;;;;;;;;8.00;7.25;;;;;5.72;74.60;100479.75;5079681;27;45285;-65
2021/12/03 09:41:29;;;;;;;;;14.25;9.50;;;;;5.74;75.83;100466.69;5080513;27;45418;-65
2021/12/03 09:43:55;;;;;;;;;13.25;8.25;;;;;5.77;75.41;100469.22;5079313;27;45329;-65
2021/12/03 09:46:27;;;;;;;;;7.25;6.50;;;;;5.76;75.71;100465.75;5081411;28;46866;-63
2021/12/03 09:52:28;;;;;;;;;8.00;6.75;;;;;5.69;75.19;100451.13;5081596;27;45260;-66
2021/12/03 09:54:35;;;;;;;;;8.75;8.50;;;;;5.70;74.74;100453.72;5071030;28;45495;-67
2021/12/03 09:57:13;;;;;;;;;11.75;8.00;;;;;5.72;75.66;100455.44;5078622;27;46180;-68
2021/12/03 10:13:27;;;;;;;;;10.50;7.50;;;;;5.59;76.28;100460.03;5077409;27;45368;-66
2021/12/03 10:18:32;;;;;;;;;8.00;8.00;;;;;5.40;78.25;100448.25;5077714;27;45941;-68
2021/12/03 10:21:29;;;;;;;;;7.25;7.00;;;;;5.33;78.79;100441.47;5077799;27;45409;-64
2021/12/03 10:32:39;;;;;;;;;14.25;11.50;;;;;5.07;81.35;100414.13;5015686;28;45352;-66
2021/12/03 10:43:19;;;;;;;;;13.00;11.75;;;;;5.03;82.65;100391.63;5076707;27;45495;-68
2021/12/03 10:51:40;;;;;;;;;12.00;10.50;;;;;4.80;82.83;100373.84;5076843;27;45810;-68
2021/12/03 11:05:15;;;;;;;;;17.25;10.25;;;;;4.87;85.78;100351.13;5024826;27;45542;-63
2021/12/03 13:14:50;;;;;;;;;10.25;8.00;;;;;4.08;94.91;100121.75;5081346;27;45271;-67
2021/12/03 14:00:57;;;;;;;;;11.00;9.25;;;;;4.28;96.57;100034.59;5078236;27;45266;-62
2021/12/03 14:41:56;;;;;;;;;7.25;5.75;;;;;4.61;96.65;99972.16;5084681;27;45436;-65
2021/12/03 14:55:50;;;;;;;;;9.00;7.00;;;;;4.74;96.72;99965.72;5003330;28;46026;-67
2021/12/03 14:58:19;;;;;;;;;15.75;12.50;;;;;4.77;96.84;99954.34;5075345;27;45335;-68
2021/12/03 15:09:14;;;;;;;;;4.50;4.50;;;;;4.89;95.83;99924.53;5079831;27;45773;-67
2021/12/03 15:32:37;;;;;;;;;4.50;4.50;;;;;4.81;95.53;99914.31;5076594;27;45346;-66
2021/12/03 16:04:35;;;;;;;;;8.75;7.00;;;;;5.01;96.72;99885.06;5076199;27;45432;-67
2021/12/03 16:07:09;;;;;;;;;6.25;5.00;;;;;5.01;96.43;99874.66;5076017;27;45491;-68
2021/12/03 16:12:42;;;;;;;;;10.50;10.00;;;;;5.05;96.46;99860.63;5078461;28;45330;-67
2021/12/03 16:17:45;;;;;;;;;12.50;11.00;;;;;5.07;97.31;99848.41;5075957;28;45563;-67
2021/12/03 16:26:22;;;;;;;;;10.25;10.25;;;;;5.09;97.34;99812.72;5076119;27;45481;-67
2021/12/03 16:52:33;;;;;;;;;16.25;12.75;;;;;5.14;98.20;99765.66;5033022;28;46269;-71
2021/12/03 16:55:02;;;;;;;;;12.00;11.75;;;;;5.17;98.74;99770.78;5055852;28;45261;-75
2021/12/03 16:57:34;;;;;;;;;18.75;13.00;;;;;5.16;98.26;99766.47;5058709;28;45380;-77
2021/12/03 17:00:14;;;;;;;;;15.75;13.00;;;;;5.18;98.08;99763.81;5062049;28;45282;-76
2021/12/03 17:02:46;;;;;;;;;18.75;14.00;;;;;5.17;98.24;99741.25;5063108;28;46475;-77
2021/12/03 17:48:12;;;;;;;;;17.75;16.25;;;;;5.16;100.00;99698.69;5077405;27;45424;-69
2021/12/03 17:51:03;;;;;;;;;19.25;15.75;;;;;5.08;100.00;99682.44;5078494;27;45245;-69
2021/12/03 17:56:25;;;;;;;;;22.00;17.00;;;;;5.09;100.00;99679.78;5079470;27;46003;-68
2021/12/03 17:58:54;;;;;;;;;17.75;14.75;;;;;5.12;100.00;99669.25;5078866;27;45374;-69
2021/12/03 18:03:51;;;;;;;;;14.50;12.75;;;;;5.07;100.00;99652.91;5079989;27;45541;-68
2021/12/03 18:12:17;;;;;;;;;20.50;19.50;;;;;5.08;100.00;99641.56;5081851;27;45436;-67
2021/12/03 18:55:11;;;;;;;;;20.00;17.75;;;;;5.29;100.00;99566.13;5079439;27;45231;-61
2021/12/03 18:57:43;;;;;;;;;21.00;20.25;;;;;5.30;100.00;99552.22;5078294;28;45416;-64
2021/12/03 19:00:10;;;;;;;;;32.00;26.75;;;;;5.31;100.00;99551.31;5076942;27;45366;-63
2021/12/03 19:02:38;;;;;;;;;16.25;15.00;;;;;5.24;100.00;99542.84;5077038;27;45523;-66
2021/12/03 19:05:25;;;;;;;;;27.00;24.25;;;;;5.32;100.00;99547.81;5078198;27;45468;-69
2021/12/03 19:08:13;;;;;;;;;22.50;18.50;;;;;5.33;100.00;99546.91;5077928;27;45261;-67
2021/12/03 19:10:47;;;;;;;;;24.75;21.00;;;;;5.40;100.00;99542.31;5077688;27;46054;-65
2021/12/03 19:13:19;;;;;;;;;23.75;21.50;;;;;5.45;100.00;99544.75;5077707;27;45313;-68